Time;durP1;ratioP1;P1;durP2;ratioP2;P2;SDS_P1;SDS_P2;PMS_P1;PMS_P2;Temp;Humidity;BMP_temperature;BMP_pressure;BME280_temperature;BME280_humidity;BME280_pressure;Samples;Min_cycle;Max_cycle;Signal;HPM_P1;HPM_P2
2023/05/01 16:08:04;;;;;;;;;;;;;;;16.92;52.51;97883.44;5064350;23;19963;-62
2023/05/01 16:10:30;;;;;;;;;;;;;;;16.55;52.46;97880.91;4841380;29;19947;-63
2023/05/01 16:12:55;;;;;;;;;;;;;;;16.23;53.18;97884.06;4824825;29;20378;-62
2023/05/01 16:15:21;;;;;;;;;;;;;;;16.17;53.05;97876.72;4826418;29;20394;-62
2023/05/01 16:17:48;;;;;;;;;;;;;;;16.24;52.68;97881.28;4842740;29;20450;-63
2023/05/01 16:20:15;;;;;;;;;;;;;;;16.92;51.48;97878.13;4842626;29;19920;-64
2023/05/01 16:22:41;;;;;;;;;;;;;;;17.48;50.96;97876.91;4838921;29;19917;-64
2023/05/01 16:25:07;;;;;;;;;;;;;;;17.20;50.52;97880.66;4807978;29;19928;-62
2023/05/01 16:27:33;;;;;;;;;;;;;;;16.77;50.28;97880.50;4842529;29;19920;-61
2023/05/01 16:29:58;;;;;;;;;;;;;;;16.56;51.75;97886.06;4840136;29;19924;-63
2023/05/01 16:32:23;;;;;;;;;;;;;;;16.58;51.97;97881.44;4842481;29;19920;-63
2023/05/01 16:34:48;;;;;;;;;;;;;;;16.78;51.07;97882.16;4822201;29;19916;-63
2023/05/01 16:37:14;;;;;;;;;;;;;;;16.95;50.89;97880.47;4820834;29;19928;-63
2023/05/01 16:39:39;;;;;;;;;;;;;;;17.08;50.95;97874.78;4833841;29;19920;-63
2023/05/01 16:42:05;;;;;;;;;;;;;;;16.81;50.66;97881.84;4835940;29;20000;-63
2023/05/01 16:44:30;;;;;;;;;;;;;;;16.80;51.16;97874.91;4836177;29;20011;-62
2023/05/01 16:46:55;;;;;;;;;;;;;;;16.67;51.12;97882.38;4841464;29;20007;-64
2023/05/01 16:49:21;;;;;;;;;;;;;;;16.81;50.84;97881.84;4825578;29;20398;-64
2023/05/01 16:51:46;;;;;;;;;;;;;;;17.03;51.28;97880.56;4838914;29;20291;-62
2023/05/01 16:54:12;;;;;;;;;;;;;;;16.99;50.84;97878.34;4835647;29;19971;-61
2023/05/01 16:56:37;;;;;;;;;;;;;;;16.95;50.82;97872.53;4840349;29;20045;-63
2023/05/01 16:59:02;;;;;;;;;;;;;;;16.95;51.37;97877.00;4841922;29;19927;-62
2023/05/01 17:01:27;;;;;;;;;;;;;;;16.81;52.03;97878.38;4821992;29;20287;-62
2023/05/01 17:03:53;;;;;;;;;;;;;;;16.69;51.98;97872.47;4808028;29;19924;-62
2023/05/01 17:06:18;;;;;;;;;;;;;;;16.50;52.22;97875.25;4840581;29;19977;-62
2023/05/01 17:08:43;;;;;;;;;;;;;;;16.48;53.17;97874.56;4841097;29;19928;-61
2023/05/01 17:11:08;;;;;;;;;;;;;;;16.40;53.15;97883.25;4841867;29;19916;-62
2023/05/01 17:13:34;;;;;;;;;;;;;;;16.27;52.83;97885.41;4839980;29;19921;-62
2023/05/01 17:15:59;;;;;;;;;;;;;;;16.19;52.66;97886.16;4839993;29;19927;-61
2023/05/01 17:18:24;;;;;;;;;;;;;;;16.05;53.05;97889.31;4824381;29;19936;-62
2023/05/01 17:20:49;;;;;;;;;;;;;;;16.04;53.22;97890.31;4825403;29;19920;-62
2023/05/01 17:23:15;;;;;;;;;;;;;;;16.11;52.81;97886.91;4836158;29;20099;-62
2023/05/01 17:25:41;;;;;;;;;;;;;;;16.01;54.00;97894.06;4840625;29;19984;-63
2023/05/01 17:28:06;;;;;;;;;;;;;;;15.96;54.42;97887.53;4822545;29;19920;-61
2023/05/01 17:30:31;;;;;;;;;;;;;;;15.82;54.21;97886.22;4841251;29;19916;-62
2023/05/01 17:32:56;;;;;;;;;;;;;;;15.82;53.91;97894.16;4840975;29;20198;-62
2023/05/01 17:35:22;;;;;;;;;;;;;;;15.77;54.84;97891.94;4836567;29;19921;-61
2023/05/01 17:37:47;;;;;;;;;;;;;;;15.69;55.14;97899.78;4838132;29;19935;-62
2023/05/01 17:40:12;;;;;;;;;;;;;;;15.65;54.77;97898.34;4838904;29;19921;-61
2023/05/01 17:42:37;;;;;;;;;;;;;;;15.58;55.47;97891.97;4841515;29;20402;-62
2023/05/01 17:45:06;;;;;;;;;;;;;;;15.41;55.04;97894.38;4839464;29;19920;-63
2023/05/01 17:47:31;;;;;;;;;;;;;;;15.33;55.60;97902.19;4825503;29;19956;-62
2023/05/01 17:49:56;;;;;;;;;;;;;;;15.27;56.50;97908.03;4836454;29;19956;-62
2023/05/01 17:52:21;;;;;;;;;;;;;;;15.15;56.33;97902.09;4836876;29;19978;-62
2023/05/01 17:54:47;;;;;;;;;;;;;;;15.08;56.14;97900.16;4840271;29;20000;-61
2023/05/01 17:57:12;;;;;;;;;;;;;;;14.89;57.18;97901.84;4840181;29;20377;-62
2023/05/01 17:59:37;;;;;;;;;;;;;;;14.76;57.98;97906.56;4840961;29;20003;-62
2023/05/01 18:02:03;;;;;;;;;;;;;;;14.69;58.93;97913.34;4840821;29;19924;-62
2023/05/01 18:04:28;;;;;;;;;;;;;;;14.59;59.27;97907.25;4839933;29;19927;-62
2023/05/01 18:06:54;;;;;;;;;;;;;;;14.47;59.54;97911.78;4836029;29;20394;-62
2023/05/01 18:09:21;;;;;;;;;;;;;;;14.39;60.16;97914.28;4824516;29;19916;-63
2023/05/01 18:11:46;;;;;;;;;;;;;;;14.26;60.22;97914.53;4841275;29;19917;-61
2023/05/01 18:14:12;;;;;;;;;;;;;;;14.04;60.47;97920.00;4837417;29;20031;-62
2023/05/01 18:16:37;;;;;;;;;;;;;;;13.89;61.37;97922.19;4839138;29;19931;-62
2023/05/01 18:19:02;;;;;;;;;;;;;;;13.79;61.74;97919.50;4839880;29;19970;-62
2023/05/01 18:21:28;;;;;;;;;;;;;;;13.68;63.56;97917.78;4823756;29;19920;-61
2023/05/01 18:23:53;;;;;;;;;;;;;;;13.61;63.96;97926.34;4839936;29;19949;-62
2023/05/01 18:26:18;;;;;;;;;;;;;;;13.53;63.42;97927.00;4839752;29;19969;-62
2023/05/01 18:28:43;;;;;;;;;;;;;;;13.43;64.66;97932.22;4838814;29;19928;-62
2023/05/01 18:31:09;;;;;;;;;;;;;;;13.36;64.81;97936.34;4840616;29;19917;-61
2023/05/01 18:33:34;;;;;;;;;;;;;;;13.21;65.23;97942.84;4841043;29;20010;-62
2023/05/01 18:35:59;;;;;;;;;;;;;;;13.15;65.97;97932.84;4837391;29;20029;-62
2023/05/01 18:38:26;;;;;;;;;;;;;;;13.06;65.84;97937.91;4837759;29;20000;-61
2023/05/01 18:40:51;;;;;;;;;;;;;;;12.97;66.15;97943.09;4839458;29;19920;-61
2023/05/01 18:43:16;;;;;;;;;;;;;;;12.86;67.19;97946.59;4840768;29;20386;-61
2023/05/01 18:45:42;;;;;;;;;;;;;;;12.78;67.47;97941.97;4838538;29;20402;-61
2023/05/01 18:48:07;;;;;;;;;;;;;;;12.68;68.42;97950.75;4833382;29;20406;-62
2023/05/01 18:50:32;;;;;;;;;;;;;;;12.58;68.99;97956.72;4835215;29;19961;-62
2023/05/01 18:52:57;;;;;;;;;;;;;;;12.57;68.37;97960.34;4840769;29;19920;-61
2023/05/01 18:55:23;;;;;;;;;;;;;;;12.49;69.35;97964.53;4836068;29;19920;-62
2023/05/01 18:57:49;;;;;;;;;;;;;;;12.38;70.00;97975.06;4840525;29;20397;-63
2023/05/01 19:00:15;;;;;;;;;;;;;;;12.25;70.01;97983.09;4829537;29;19921;-62
2023/05/01 19:02:40;;;;;;;;;;;;;;;12.23;70.35;97990.28;4835093;29;19925;-62
2023/05/01 19:05:07;;;;;;;;;;;;;;;12.11;71.15;97992.94;4839457;29;20382;-61
2023/05/01 19:07:32;;;;;;;;;;;;;;;12.01;71.56;97989.34;4840512;29;19920;-62
2023/05/01 19:09:57;;;;;;;;;;;;;;;11.96;71.77;97990.63;4846887;29;20306;-62
2023/05/01 19:12:22;;;;;;;;;;;;;;;11.88;71.73;97999.13;4844846;29;20314;-62
2023/05/01 19:14:48;;;;;;;;;;;;;;;11.89;72.08;97990.28;4843085;29;20288;-61
2023/05/01 19:17:13;;;;;;;;;;;;;;;11.77;71.92;97999.09;4836698;29;20306;-61
2023/05/01 19:19:38;;;;;;;;;;;;;;;11.73;73.07;97998.47;4841383;29;20248;-61
2023/05/01 19:22:03;;;;;;;;;;;;;;;11.65;72.90;98004.31;4843916;29;19920;-62
2023/05/01 19:24:29;;;;;;;;;;;;;;;11.58;73.64;98002.28;4841893;29;19955;-62
2023/05/01 19:26:54;;;;;;;;;;;;;;;11.66;73.51;97999.88;4840927;29;19920;-64
2023/05/01 19:29:19;;;;;;;;;;;;;;;11.64;73.19;98001.81;4843552;29;19916;-64
2023/05/01 19:31:44;;;;;;;;;;;;;;;11.63;73.03;98005.38;4841695;29;19921;-63
2023/05/01 19:34:10;;;;;;;;;;;;;;;11.60;72.52;98003.84;4846487;29;19976;-63
2023/05/01 19:36:35;;;;;;;;;;;;;;;11.57;72.89;98006.69;4843231;29;19916;-65
2023/05/01 19:39:00;;;;;;;;;;;;;;;11.55;73.10;98011.22;4842726;29;19963;-63
2023/05/01 19:41:26;;;;;;;;;;;;;;;11.47;73.17;98010.97;4825810;29;20379;-63
2023/05/01 19:43:51;;;;;;;;;;;;;;;11.32;73.74;98009.47;4842853;29;19995;-63
2023/05/01 19:46:16;;;;;;;;;;;;;;;11.37;73.64;98010.81;4838401;29;20019;-63
2023/05/01 19:48:41;;;;;;;;;;;;;;;11.31;73.70;98015.69;4837818;29;19975;-62
2023/05/01 19:51:06;;;;;;;;;;;;;;;11.33;73.59;98017.25;4843247;29;19948;-63
2023/05/01 19:53:32;;;;;;;;;;;;;;;11.29;74.16;98013.19;4843486;29;19962;-63
2023/05/01 19:55:57;;;;;;;;;;;;;;;11.22;73.96;98018.97;4842510;29;19924;-63
2023/05/01 19:58:25;;;;;;;;;;;;;;;11.16;74.32;98020.28;4843244;29;20038;-64
2023/05/01 20:00:50;;;;;;;;;;;;;;;11.11;74.61;98017.16;4842192;29;19967;-63
2023/05/01 20:03:16;;;;;;;;;;;;;;;11.07;74.08;98024.41;4838065;29;19952;-64
2023/05/01 20:05:41;;;;;;;;;;;;;;;11.08;75.05;98031.34;4841262;29;20425;-64
